createdAt,value
2018-08-23T00:00:37.995Z,2.80
2018-08-23T00:03:15.680Z,3.20
2018-08-23T00:05:49.496Z,3.40
2018-08-23T00:08:17.608Z,2.92
2018-08-23T00:10:45.924Z,2.80
2018-08-23T00:13:14.015Z,2.85
2018-08-23T00:15:42.178Z,2.57
2018-08-23T00:18:10.300Z,2.50
2018-08-23T00:20:38.739Z,3.15
2018-08-23T00:23:07.896Z,3.17
2018-08-23T00:25:36.740Z,3.70
2018-08-23T00:28:05.219Z,3.67
2018-08-23T00:30:34.524Z,3.07
2018-08-23T00:33:03.710Z,3.47
2018-08-23T00:35:32.503Z,3.20
2018-08-23T00:38:01.508Z,3.17
2018-08-23T00:40:29.658Z,2.67
2018-08-23T00:43:03.220Z,2.50
2018-08-23T00:45:31.720Z,2.50
2018-08-23T00:47:59.856Z,2.60
2018-08-23T00:51:05.669Z,2.93
2018-08-23T00:53:35.181Z,4.28
2018-08-23T00:56:18.607Z,3.47
2018-08-23T00:58:54.263Z,3.40
2018-08-23T01:01:23.380Z,2.57
2018-08-23T01:03:52.558Z,3.10
2018-08-23T01:06:25.570Z,3.20
2018-08-23T01:08:54.595Z,3.03
2018-08-23T01:11:22.728Z,2.23
2018-08-23T01:13:51.504Z,2.77
2018-08-23T01:16:19.610Z,3.92
2018-08-23T01:18:47.839Z,2.30
2018-08-23T01:21:15.952Z,2.87
2018-08-23T01:23:44.279Z,2.52
2018-08-23T01:26:12.560Z,2.43
2018-08-23T01:28:40.728Z,2.17
2018-08-23T01:31:21.840Z,2.93
2018-08-23T01:33:53.213Z,3.20
2018-08-23T01:36:25.962Z,2.53
2018-08-23T01:38:54.137Z,2.77
2018-08-23T01:41:22.235Z,2.45
2018-08-23T01:43:51.150Z,3.03
2018-08-23T01:46:19.232Z,2.90
2018-08-23T01:48:51.128Z,2.60
2018-08-23T01:51:19.220Z,2.40
2018-08-23T01:53:49.044Z,2.90
2018-08-23T01:56:17.922Z,2.80
2018-08-23T01:58:46.053Z,2.03
2018-08-23T02:01:20.005Z,2.53
2018-08-23T02:03:48.361Z,2.60
2018-08-23T02:06:16.496Z,3.30
2018-08-23T02:08:46.043Z,3.40
2018-08-23T02:11:14.410Z,2.47
2018-08-23T02:13:42.860Z,2.80
2018-08-23T02:16:11.029Z,2.93
2018-08-23T02:18:39.142Z,3.60
2018-08-23T02:21:11.093Z,3.23
2018-08-23T02:23:50.483Z,2.20
2018-08-23T02:26:18.607Z,2.33
2018-08-23T02:28:48.267Z,2.97
2018-08-23T02:31:16.435Z,3.30
2018-08-23T02:33:45.492Z,2.95
2018-08-23T02:36:19.606Z,3.10
2018-08-23T02:38:51.053Z,2.80
2018-08-23T02:41:19.194Z,2.53
2018-08-23T02:43:47.859Z,2.40
2018-08-23T02:46:16.215Z,3.40
2018-08-23T02:48:44.615Z,2.50
2018-08-23T02:51:12.770Z,3.00
2018-08-23T02:53:43.118Z,3.27
2018-08-23T02:56:13.114Z,2.53
2018-08-23T02:59:00.028Z,3.08
2018-08-23T03:01:30.780Z,2.50
2018-08-23T03:04:09.816Z,2.67
2018-08-23T03:06:43.958Z,3.70
2018-08-23T03:09:12.546Z,2.63
2018-08-23T03:11:40.657Z,2.70
2018-08-23T03:14:08.819Z,3.67
2018-08-23T03:16:48.906Z,2.65
2018-08-23T03:19:17.218Z,3.37
2018-08-23T03:21:45.976Z,3.17
2018-08-23T03:24:18.556Z,4.13
2018-08-23T03:26:48.271Z,2.83
2018-08-23T03:29:16.861Z,3.33
2018-08-23T03:31:44.979Z,3.00
2018-08-23T03:34:13.093Z,2.90
2018-08-23T03:36:41.183Z,2.93
2018-08-23T03:39:09.769Z,2.97
2018-08-23T03:41:38.237Z,3.73
2018-08-23T03:44:16.327Z,3.83
2018-08-23T03:46:52.022Z,3.10
2018-08-23T03:49:25.131Z,3.03
2018-08-23T03:51:54.205Z,3.03
2018-08-23T03:54:22.312Z,4.13
2018-08-23T03:57:05.926Z,3.27
2018-08-23T03:59:35.290Z,2.75
2018-08-23T04:02:03.424Z,3.27
2018-08-23T04:04:32.440Z,2.60
2018-08-23T04:07:00.555Z,4.47
2018-08-23T04:09:29.195Z,2.90
2018-08-23T04:11:57.535Z,2.40
2018-08-23T04:14:25.627Z,2.77
2018-08-23T04:16:54.041Z,1.97
2018-08-23T04:19:22.510Z,2.87
2018-08-23T04:21:51.222Z,2.97
2018-08-23T04:24:20.347Z,3.10
2018-08-23T04:26:48.513Z,3.23
2018-08-23T04:29:32.686Z,2.70
2018-08-23T04:32:02.559Z,2.83
2018-08-23T04:34:32.988Z,2.43
2018-08-23T04:37:01.105Z,2.37
2018-08-23T04:39:29.207Z,3.00
2018-08-23T04:42:02.395Z,2.60
2018-08-23T04:44:42.360Z,3.53
2018-08-23T04:47:11.708Z,2.00
2018-08-23T04:49:40.087Z,2.80
2018-08-23T04:52:08.682Z,3.47
2018-08-23T04:54:36.791Z,2.80
2018-08-23T04:57:04.904Z,3.08
2018-08-23T04:59:32.971Z,2.70
2018-08-23T05:02:01.075Z,3.30
2018-08-23T05:04:29.184Z,2.47
2018-08-23T05:06:57.292Z,3.87
2018-08-23T05:09:25.502Z,3.70
2018-08-23T05:11:53.584Z,2.87
2018-08-23T05:14:22.631Z,2.93
2018-08-23T05:16:50.783Z,3.80
2018-08-23T05:19:18.879Z,2.57
2018-08-23T05:21:46.985Z,4.17
2018-08-23T05:24:15.193Z,4.23
2018-08-23T05:26:43.399Z,2.40
2018-08-23T05:29:11.540Z,3.12
2018-08-23T05:31:39.696Z,2.80
2018-08-23T05:34:08.843Z,3.47
2018-08-23T05:36:36.998Z,3.53
2018-08-23T05:39:08.121Z,3.40
2018-08-23T05:41:36.342Z,2.90
2018-08-23T05:44:13.491Z,3.63
2018-08-23T05:46:48.452Z,3.12
2018-08-23T05:49:16.603Z,3.73
2018-08-23T05:51:45.352Z,2.53
2018-08-23T05:54:13.495Z,3.97
2018-08-23T05:56:42.182Z,3.30
2018-08-23T05:59:15.269Z,3.40
2018-08-23T06:01:44.160Z,3.23
2018-08-23T06:04:12.345Z,3.03
2018-08-23T06:06:40.821Z,2.70
2018-08-23T06:09:13.091Z,3.02
2018-08-23T06:11:41.456Z,2.80
2018-08-23T06:14:09.657Z,3.33
2018-08-23T06:16:46.012Z,3.42
2018-08-23T06:19:14.692Z,3.63
2018-08-23T06:21:42.857Z,2.90
2018-08-23T06:24:11.269Z,3.43
2018-08-23T06:26:46.318Z,3.10
2018-08-23T06:29:20.517Z,4.67
2018-08-23T06:31:59.927Z,2.77
2018-08-23T06:34:32.835Z,3.90
2018-08-23T06:37:00.943Z,3.25
2018-08-23T06:39:29.080Z,4.90
2018-08-23T06:41:58.582Z,4.57
2018-08-23T06:44:34.142Z,3.93
2018-08-23T06:47:02.360Z,4.28
2018-08-23T06:49:30.484Z,4.30
2018-08-23T06:52:10.132Z,4.20
2018-08-23T06:54:38.269Z,3.50
2018-08-23T06:57:06.376Z,3.17
2018-08-23T06:59:34.584Z,3.72
2018-08-23T07:02:02.731Z,3.40
2018-08-23T07:04:30.845Z,2.83
2018-08-23T07:06:58.967Z,2.80
2018-08-23T07:09:27.083Z,4.17
2018-08-23T07:12:04.603Z,3.50
2018-08-23T07:14:34.050Z,3.50
2018-08-23T07:17:16.735Z,4.30
2018-08-23T07:19:45.045Z,3.43
2018-08-23T07:22:16.119Z,3.60
2018-08-23T07:24:45.443Z,4.10
2018-08-23T07:27:14.679Z,5.27
2018-08-23T07:29:46.027Z,3.85
2018-08-23T07:32:21.955Z,3.37
2018-08-23T07:34:59.191Z,3.67
2018-08-23T07:37:27.330Z,3.90
2018-08-23T07:40:00.947Z,3.03
2018-08-23T07:42:31.062Z,3.73
2018-08-23T07:44:59.964Z,3.93
2018-08-23T07:47:28.346Z,3.77
2018-08-23T07:49:58.369Z,3.60
2018-08-23T07:52:28.458Z,3.35
2018-08-23T07:54:57.389Z,3.20
2018-08-23T07:57:25.792Z,3.00
2018-08-23T07:59:57.768Z,3.87
2018-08-23T08:02:26.415Z,2.80
2018-08-23T08:04:54.611Z,3.07
2018-08-23T08:07:28.470Z,3.80
2018-08-23T08:09:57.684Z,4.07
2018-08-23T08:12:37.500Z,3.70
2018-08-23T08:15:12.128Z,3.20
2018-08-23T08:17:40.228Z,3.10
2018-08-23T08:20:09.833Z,3.47
2018-08-23T08:22:38.024Z,2.87
2018-08-23T08:25:17.683Z,3.95
2018-08-23T08:27:46.148Z,3.90
2018-08-23T08:30:16.824Z,2.73
2018-08-23T08:32:45.459Z,3.35
2018-08-23T08:35:15.207Z,2.60
2018-08-23T08:37:43.993Z,3.50
2018-08-23T08:40:18.394Z,3.47
2018-08-23T08:42:46.496Z,2.80
2018-08-23T08:45:14.734Z,3.70
2018-08-23T08:47:44.340Z,3.17
2018-08-23T08:50:12.443Z,2.90
2018-08-23T08:52:40.590Z,3.15
2018-08-23T08:55:10.323Z,3.20
2018-08-23T08:57:41.641Z,2.43
2018-08-23T09:00:10.293Z,2.52
2018-08-23T09:02:38.448Z,2.70
2018-08-23T09:05:06.681Z,2.00
2018-08-23T09:07:35.783Z,2.07
2018-08-23T09:10:04.472Z,2.80
2018-08-23T09:12:33.051Z,2.10
2018-08-23T09:15:01.147Z,2.17
2018-08-23T09:17:45.492Z,1.90
2018-08-23T09:20:16.800Z,2.03
2018-08-23T09:22:53.915Z,2.77
2018-08-23T09:25:29.458Z,1.40
2018-08-23T09:27:57.552Z,2.47
2018-08-23T09:30:25.901Z,2.40
2018-08-23T09:32:54.116Z,2.10
2018-08-23T09:35:26.407Z,3.10
2018-08-23T09:37:56.611Z,2.13
2018-08-23T09:40:25.247Z,2.00
2018-08-23T09:42:53.463Z,1.80
2018-08-23T09:45:22.107Z,2.07
2018-08-23T09:47:50.234Z,2.10
2018-08-23T09:50:18.445Z,1.80
2018-08-23T09:52:48.709Z,2.10
2018-08-23T09:55:19.089Z,2.20
2018-08-23T09:57:47.717Z,2.13
2018-08-23T10:00:21.640Z,1.80
2018-08-23T10:02:55.366Z,2.00
2018-08-23T10:05:28.980Z,1.77
2018-08-23T10:08:02.759Z,1.60
2018-08-23T10:10:36.291Z,1.40
2018-08-23T10:13:10.000Z,2.17
2018-08-23T10:15:43.949Z,1.70
2018-08-23T10:18:17.621Z,1.50
2018-08-23T10:20:51.182Z,1.63
2018-08-23T10:23:22.180Z,1.40
2018-08-23T10:25:51.367Z,1.50
2018-08-23T10:28:20.709Z,1.70
2018-08-23T10:30:49.068Z,2.00
2018-08-23T10:33:17.560Z,2.10
2018-08-23T10:35:46.742Z,1.90
2018-08-23T22:13:10.867Z,1.80
2018-08-23T22:15:44.347Z,1.60
2018-08-23T22:18:12.440Z,1.50
2018-08-23T22:20:40.542Z,1.30
2018-08-23T22:23:08.660Z,1.95
2018-08-23T22:25:37.316Z,1.63
2018-08-23T22:28:05.718Z,1.30
2018-08-23T22:30:33.845Z,1.80
2018-08-23T22:33:01.979Z,1.50
2018-08-23T22:35:30.253Z,1.90
2018-08-23T22:37:58.387Z,2.10
2018-08-23T22:40:26.852Z,1.37
2018-08-23T22:42:54.976Z,1.77
2018-08-23T22:45:23.118Z,1.67
2018-08-23T22:47:51.227Z,1.33
2018-08-23T22:50:19.328Z,1.30
2018-08-23T22:52:47.436Z,1.20
2018-08-23T22:55:15.553Z,1.50
2018-08-23T22:57:43.664Z,1.40
2018-08-23T23:00:11.757Z,1.70
2018-08-23T23:02:40.788Z,1.30
2018-08-23T23:05:09.437Z,1.80
2018-08-23T23:07:37.564Z,1.80
2018-08-23T23:10:06.141Z,1.60
2018-08-23T23:12:34.248Z,1.77
2018-08-23T23:15:06.187Z,2.53
2018-08-23T23:17:34.858Z,1.30
2018-08-23T23:20:02.959Z,1.40
2018-08-23T23:22:31.072Z,1.93
2018-08-23T23:25:01.403Z,1.40
2018-08-23T23:27:29.723Z,1.70
2018-08-23T23:29:58.280Z,1.80
2018-08-23T23:32:26.412Z,1.50
2018-08-23T23:34:54.891Z,1.50
2018-08-23T23:37:23.327Z,2.00
2018-08-23T23:39:51.472Z,1.98
2018-08-23T23:42:19.567Z,1.70
2018-08-23T23:44:47.676Z,1.43
2018-08-23T23:47:15.779Z,1.40
2018-08-23T23:49:43.935Z,1.50
2018-08-23T23:52:12.438Z,1.70
2018-08-23T23:54:40.536Z,1.90
2018-08-23T23:57:08.937Z,1.63
2018-08-23T23:59:37.042Z,1.20
